createdAt,value
2019-02-15T00:02:18.457Z,19.00
2019-02-15T00:04:46.022Z,24.70
2019-02-15T00:07:13.497Z,19.50
2019-02-15T00:09:41.071Z,22.70
2019-02-15T00:12:08.588Z,18.43
2019-02-15T00:14:44.745Z,23.07
2019-02-15T00:17:13.584Z,19.63
2019-02-15T00:19:44.744Z,22.47
2019-02-15T00:22:12.372Z,18.83
2019-02-15T00:24:39.831Z,23.73
2019-02-15T00:27:07.372Z,20.27
2019-02-15T00:29:35.002Z,17.43
2019-02-15T00:32:02.516Z,20.00
2019-02-15T00:34:30.156Z,19.77
2019-02-15T00:36:57.819Z,16.20
2019-02-15T00:39:25.331Z,21.07
2019-02-15T00:41:52.788Z,22.10
2019-02-15T00:44:20.206Z,23.10
2019-02-15T00:47:09.798Z,20.67
2019-02-15T00:49:45.177Z,22.77
2019-02-15T00:52:18.622Z,19.90
2019-02-15T00:54:54.963Z,22.90
2019-02-15T00:57:44.418Z,20.10
2019-02-15T01:00:32.581Z,21.20
2019-02-15T01:03:28.522Z,29.73
2019-02-15T01:06:15.422Z,24.93
2019-02-15T01:08:57.518Z,22.55
2019-02-15T01:11:37.331Z,24.00
2019-02-15T01:14:04.838Z,21.03
2019-02-15T01:16:32.267Z,24.97
2019-02-15T01:18:59.931Z,25.40
2019-02-15T01:21:27.452Z,24.37
2019-02-15T01:23:55.038Z,23.27
2019-02-15T01:26:47.828Z,26.90
2019-02-15T01:29:52.766Z,22.50
2019-02-15T01:32:42.227Z,20.90
2019-02-15T01:35:15.435Z,19.57
2019-02-15T01:37:59.077Z,19.00
2019-02-15T01:40:47.739Z,19.40
2019-02-15T01:43:24.524Z,20.70
2019-02-15T01:46:23.797Z,18.60
2019-02-15T01:48:51.467Z,19.83
2019-02-15T01:51:19.006Z,22.60
2019-02-15T01:53:46.557Z,19.07
2019-02-15T01:56:14.123Z,17.60
2019-02-15T01:58:41.673Z,18.83
2019-02-15T02:01:09.180Z,19.80
2019-02-15T02:03:36.639Z,18.00
2019-02-15T02:06:04.032Z,18.90
2019-02-15T02:08:32.121Z,21.17
2019-02-15T02:10:59.590Z,16.43
2019-02-15T02:13:27.192Z,18.10
2019-02-15T02:15:54.806Z,17.07
2019-02-15T02:18:22.348Z,16.80
2019-02-15T02:20:51.105Z,15.73
2019-02-15T02:23:18.603Z,16.97
2019-02-15T02:25:45.989Z,17.40
2019-02-15T02:28:13.438Z,14.73
2019-02-15T02:30:40.894Z,17.77
2019-02-15T02:33:09.394Z,17.67
2019-02-15T02:35:37.024Z,18.57
2019-02-15T02:38:04.527Z,16.50
2019-02-15T02:40:32.113Z,16.00
2019-02-15T02:42:59.522Z,16.10
2019-02-15T02:45:26.965Z,15.50
2019-02-15T02:47:54.418Z,14.90
2019-02-15T02:50:21.918Z,15.80
2019-02-15T02:52:49.512Z,14.90
2019-02-15T02:55:17.090Z,13.93
2019-02-15T02:57:44.597Z,15.07
2019-02-15T03:00:12.137Z,14.97
2019-02-15T03:02:40.065Z,15.10
2019-02-15T03:05:07.661Z,17.17
2019-02-15T03:07:35.178Z,14.90
2019-02-15T03:10:03.256Z,15.37
2019-02-15T03:12:32.227Z,15.10
2019-02-15T03:14:59.846Z,13.83
2019-02-15T03:17:27.343Z,15.40
2019-02-15T03:19:54.775Z,16.07
2019-02-15T03:22:22.176Z,16.50
2019-02-15T03:24:49.811Z,13.97
2019-02-15T03:27:17.269Z,15.23
2019-02-15T03:29:44.888Z,14.03
2019-02-15T03:32:12.490Z,14.10
2019-02-15T03:34:40.028Z,15.73
2019-02-15T03:37:32.795Z,15.57
2019-02-15T03:40:05.491Z,15.27
2019-02-15T03:42:33.044Z,14.27
2019-02-15T03:45:00.537Z,14.70
2019-02-15T03:47:28.152Z,17.20
2019-02-15T03:49:55.653Z,16.13
2019-02-15T03:52:24.191Z,16.80
2019-02-15T03:54:51.728Z,14.73
2019-02-15T03:57:19.450Z,16.53
2019-02-15T03:59:47.180Z,14.33
2019-02-15T04:02:14.725Z,15.43
2019-02-15T04:04:42.340Z,15.70
2019-02-15T04:07:09.847Z,16.77
2019-02-15T04:09:37.274Z,13.93
2019-02-15T04:12:04.688Z,14.23
2019-02-15T04:14:33.216Z,15.23
2019-02-15T04:17:01.133Z,15.40
2019-02-15T04:19:28.691Z,14.87
2019-02-15T04:21:56.257Z,14.90
2019-02-15T04:24:24.034Z,15.87
2019-02-15T04:26:51.705Z,14.50
2019-02-15T04:29:19.226Z,14.80
2019-02-15T04:31:46.820Z,15.83
2019-02-15T04:34:14.324Z,16.60
2019-02-15T04:36:41.814Z,15.60
2019-02-15T04:39:09.617Z,17.60
2019-02-15T04:41:37.393Z,15.80
2019-02-15T04:44:05.886Z,18.20
2019-02-15T04:46:33.486Z,15.33
2019-02-15T04:49:01.138Z,16.07
2019-02-15T04:51:28.971Z,17.90
2019-02-15T04:53:56.631Z,18.50
2019-02-15T04:56:24.382Z,14.77
2019-02-15T04:58:52.043Z,15.80
2019-02-15T05:01:19.431Z,15.20
2019-02-15T05:03:46.881Z,15.10
2019-02-15T05:06:14.613Z,14.83
2019-02-15T05:08:42.175Z,16.43
2019-02-15T05:11:09.718Z,16.30
2019-02-15T05:13:37.524Z,14.60
2019-02-15T05:16:04.927Z,16.73
2019-02-15T05:18:32.404Z,15.87
2019-02-15T05:21:00.063Z,16.70
2019-02-15T05:23:27.670Z,19.00
2019-02-15T05:25:55.283Z,18.50
2019-02-15T05:28:22.734Z,19.50
2019-02-15T05:30:50.307Z,15.80
2019-02-15T05:33:17.853Z,18.90
2019-02-15T05:35:45.254Z,17.97
2019-02-15T05:38:12.705Z,17.13
2019-02-15T05:40:40.146Z,17.93
2019-02-15T05:43:07.778Z,17.30
2019-02-15T05:45:35.474Z,15.67
2019-02-15T05:48:04.101Z,15.33
2019-02-15T05:50:31.558Z,16.47
2019-02-15T05:52:59.271Z,16.37
2019-02-15T05:55:26.859Z,16.27
2019-02-15T05:57:54.351Z,18.23
2019-02-15T06:00:23.133Z,17.43
2019-02-15T06:02:50.811Z,15.93
2019-02-15T06:05:18.356Z,18.00
2019-02-15T06:07:46.121Z,17.53
2019-02-15T06:10:13.695Z,17.10
2019-02-15T06:12:41.396Z,18.53
2019-02-15T06:15:15.105Z,16.57
2019-02-15T06:17:38.373Z,18.40
2019-02-15T06:20:06.222Z,19.87
2019-02-15T06:22:33.797Z,17.17
2019-02-15T06:25:01.360Z,18.70
2019-02-15T06:27:28.902Z,17.20
2019-02-15T06:29:56.384Z,18.70
2019-02-15T06:32:23.916Z,15.97
2019-02-15T06:34:51.473Z,17.50
2019-02-15T06:37:21.393Z,18.30
2019-02-15T06:39:49.398Z,17.60
2019-02-15T06:42:16.963Z,17.87
2019-02-15T06:44:44.441Z,17.60
2019-02-15T06:47:11.978Z,20.90
2019-02-15T06:49:39.409Z,17.00
2019-02-15T06:52:06.880Z,17.27
2019-02-15T06:54:34.418Z,19.13
2019-02-15T06:57:01.691Z,19.70
2019-02-15T06:59:51.520Z,19.53
2019-02-15T07:02:36.782Z,17.17
2019-02-15T07:05:23.123Z,17.90
2019-02-15T07:07:50.548Z,18.73
2019-02-15T07:10:18.165Z,16.30
2019-02-15T07:12:45.794Z,17.63
2019-02-15T07:15:13.223Z,17.97
2019-02-15T07:17:40.643Z,16.70
2019-02-15T07:20:08.559Z,17.10
2019-02-15T07:22:36.015Z,16.70
2019-02-15T07:25:05.554Z,21.93
2019-02-15T07:27:33.087Z,20.90
2019-02-15T07:30:00.559Z,22.60
2019-02-15T07:32:28.633Z,19.10
2019-02-15T07:34:58.519Z,16.53
2019-02-15T07:37:25.851Z,18.40
2019-02-15T07:39:53.394Z,16.93
2019-02-15T07:42:21.361Z,19.53
2019-02-15T07:44:49.005Z,19.03
2019-02-15T07:47:16.650Z,17.60
2019-02-15T07:49:44.181Z,17.20
2019-02-15T07:52:11.611Z,18.93
2019-02-15T07:54:39.168Z,17.60
2019-02-15T07:57:06.719Z,21.80
2019-02-15T07:59:34.205Z,20.00
2019-02-15T08:02:02.280Z,17.37
2019-02-15T08:04:34.276Z,18.80
2019-02-15T08:07:01.962Z,18.93
2019-02-15T08:09:29.512Z,18.63
2019-02-15T08:11:57.341Z,19.43
2019-02-15T08:14:24.979Z,18.30
2019-02-15T08:16:52.526Z,17.50
2019-02-15T08:19:21.263Z,18.50
2019-02-15T08:21:49.002Z,17.90
2019-02-15T08:24:16.377Z,20.70
2019-02-15T08:26:44.120Z,25.73
2019-02-15T08:29:12.815Z,18.70
2019-02-15T08:31:40.474Z,16.67
2019-02-15T08:34:08.130Z,14.83
2019-02-15T08:36:35.427Z,15.70
2019-02-15T08:39:04.732Z,13.20
2019-02-15T08:41:34.074Z,15.13
2019-02-15T08:44:01.634Z,16.97
2019-02-15T08:46:30.057Z,21.43
2019-02-15T08:48:57.974Z,15.20
2019-02-15T08:51:25.467Z,15.03
2019-02-15T08:53:52.907Z,15.73
2019-02-15T08:56:20.397Z,19.13
2019-02-15T08:58:48.087Z,17.97
2019-02-15T09:01:15.532Z,19.40
2019-02-15T09:03:42.985Z,14.43
2019-02-15T09:06:10.460Z,14.23
2019-02-15T09:08:38.119Z,14.47
2019-02-15T09:11:05.647Z,15.87
2019-02-15T09:13:33.051Z,14.60
2019-02-15T09:16:00.454Z,16.20
2019-02-15T09:18:27.982Z,14.40
2019-02-15T09:20:55.507Z,15.60
2019-02-15T09:23:22.778Z,13.13
2019-02-15T09:25:50.229Z,13.07
2019-02-15T09:28:37.317Z,11.90
2019-02-15T09:31:04.874Z,13.20
2019-02-15T09:33:32.388Z,11.93
2019-02-15T09:35:59.954Z,14.53
2019-02-15T09:38:27.235Z,11.27
2019-02-15T09:40:54.754Z,12.63
2019-02-15T09:43:22.080Z,16.20
2019-02-15T09:45:49.549Z,12.37
2019-02-15T09:48:17.214Z,13.07
2019-02-15T09:50:44.702Z,13.63
2019-02-15T09:53:12.151Z,12.50
2019-02-15T09:55:39.710Z,12.70
2019-02-15T09:58:07.115Z,14.33
2019-02-15T10:00:34.613Z,12.80
2019-02-15T10:03:02.234Z,13.40
2019-02-15T10:05:30.042Z,10.40
2019-02-15T10:07:57.600Z,10.97
2019-02-15T10:10:25.273Z,10.90
2019-02-15T10:12:52.929Z,11.40
2019-02-15T10:15:20.454Z,10.30
2019-02-15T10:17:48.134Z,13.10
2019-02-15T10:20:15.595Z,12.10
2019-02-15T10:22:43.511Z,9.27
2019-02-15T10:25:11.244Z,8.77
2019-02-15T10:27:38.976Z,14.43
2019-02-15T10:30:07.244Z,9.80
2019-02-15T10:32:35.198Z,10.20
2019-02-15T10:35:03.325Z,12.17
2019-02-15T10:37:30.894Z,8.80
2019-02-15T10:39:58.324Z,9.17
2019-02-15T10:42:25.779Z,7.37
2019-02-15T10:44:55.715Z,8.33
2019-02-15T10:47:25.201Z,9.20
2019-02-15T10:49:52.630Z,7.53
2019-02-15T10:52:25.892Z,8.73
2019-02-15T10:54:53.484Z,7.80
2019-02-15T10:57:21.058Z,7.13
2019-02-15T10:59:48.667Z,6.60
2019-02-15T11:02:16.394Z,6.50
2019-02-15T11:04:43.806Z,8.33
2019-02-15T11:07:11.398Z,6.67
2019-02-15T11:09:38.846Z,6.37
2019-02-15T11:12:06.250Z,5.90
2019-02-15T11:14:36.761Z,6.97
2019-02-15T11:17:04.502Z,5.03
2019-02-15T11:19:31.945Z,6.20
2019-02-15T11:21:59.491Z,8.60
2019-02-15T11:24:26.938Z,6.20
2019-02-15T11:26:54.377Z,6.70
2019-02-15T11:29:21.935Z,6.65
2019-02-15T11:31:49.315Z,5.93
2019-02-15T11:34:16.706Z,5.83
2019-02-15T11:36:44.289Z,5.53
2019-02-15T11:39:12.139Z,5.60
2019-02-15T11:41:39.777Z,5.53
2019-02-15T11:44:07.409Z,5.17
2019-02-15T11:46:34.715Z,5.03
2019-02-15T11:49:02.378Z,5.90
2019-02-15T11:51:30.051Z,5.10
2019-02-15T11:53:58.666Z,8.10
2019-02-15T11:56:26.642Z,4.20
2019-02-15T11:58:54.158Z,5.50
2019-02-15T12:01:21.731Z,5.73
2019-02-15T12:03:49.543Z,3.90
2019-02-15T12:06:17.301Z,4.27
2019-02-15T12:08:44.977Z,3.63
2019-02-15T12:11:12.459Z,3.40
2019-02-15T12:13:39.768Z,3.60
2019-02-15T12:16:07.249Z,2.90
2019-02-15T12:18:34.781Z,4.03
2019-02-15T12:21:02.219Z,3.10
2019-02-15T12:23:31.699Z,3.20
2019-02-15T12:26:00.315Z,3.20
2019-02-15T12:28:27.667Z,5.33
2019-02-15T12:30:55.193Z,3.13
2019-02-15T12:33:22.722Z,3.17
2019-02-15T12:35:50.351Z,3.10
2019-02-15T12:38:17.820Z,3.10
2019-02-15T12:40:45.419Z,2.57
2019-02-15T12:43:13.177Z,3.03
2019-02-15T12:45:40.787Z,3.17
2019-02-15T12:48:08.442Z,2.80
2019-02-15T12:50:36.505Z,2.90
2019-02-15T12:53:04.033Z,2.80
2019-02-15T12:55:31.725Z,3.10
2019-02-15T12:57:59.550Z,3.23
2019-02-15T13:00:27.174Z,3.20
2019-02-15T13:02:54.660Z,3.73
2019-02-15T13:05:22.327Z,3.12
2019-02-15T13:07:50.018Z,2.40
2019-02-15T13:10:21.559Z,5.90
2019-02-15T13:12:49.074Z,2.83
2019-02-15T13:15:16.674Z,2.80
2019-02-15T13:17:44.230Z,3.87
2019-02-15T13:20:11.796Z,2.40
2019-02-15T13:22:40.617Z,2.40
2019-02-15T13:25:08.440Z,3.43
2019-02-15T13:27:36.202Z,3.33
2019-02-15T13:30:04.122Z,3.13
2019-02-15T13:32:33.272Z,3.03
2019-02-15T13:35:01.352Z,3.50
2019-02-15T13:37:28.919Z,2.90
2019-02-15T13:39:56.489Z,3.20
2019-02-15T13:42:25.291Z,3.27
2019-02-15T13:44:52.870Z,2.73
2019-02-15T13:47:20.580Z,2.83
2019-02-15T13:49:48.276Z,2.67
2019-02-15T13:52:15.778Z,2.40
2019-02-15T13:54:43.306Z,3.03
2019-02-15T13:57:10.861Z,2.80
2019-02-15T13:59:39.153Z,2.73
2019-02-15T14:02:06.639Z,3.50
2019-02-15T14:04:35.134Z,3.17
2019-02-15T14:07:14.510Z,3.07
2019-02-15T14:09:41.839Z,3.37
2019-02-15T14:12:09.561Z,3.20
2019-02-15T14:14:37.055Z,5.20
2019-02-15T14:17:04.799Z,3.90
2019-02-15T14:19:34.780Z,3.10
2019-02-15T14:22:02.320Z,3.67
2019-02-15T14:24:30.384Z,3.10
2019-02-15T14:26:58.045Z,3.30
2019-02-15T14:29:25.576Z,2.90
2019-02-15T14:31:53.259Z,3.93
2019-02-15T14:34:24.253Z,4.13
2019-02-15T14:36:55.248Z,5.83
2019-02-15T14:39:27.620Z,3.63
2019-02-15T14:41:55.872Z,3.23
2019-02-15T14:44:38.591Z,3.47
2019-02-15T14:47:26.404Z,5.13
2019-02-15T14:49:59.416Z,4.50
2019-02-15T14:52:28.086Z,3.40
2019-02-15T14:54:59.654Z,3.60
2019-02-15T14:57:28.455Z,3.43
2019-02-15T14:59:56.828Z,3.60
2019-02-15T15:02:27.529Z,3.97
2019-02-15T15:05:00.288Z,6.63
2019-02-15T15:07:30.028Z,5.40
2019-02-15T15:09:58.610Z,3.40
2019-02-15T15:12:27.822Z,3.67
2019-02-15T15:15:02.659Z,3.87
2019-02-15T15:17:41.994Z,5.00
2019-02-15T15:20:13.145Z,6.23
2019-02-15T15:22:42.692Z,3.80
2019-02-15T15:28:07.045Z,4.57
2019-02-15T15:30:40.734Z,4.30
2019-02-15T15:33:09.435Z,5.90
2019-02-15T15:35:40.284Z,5.23
2019-02-15T15:38:30.980Z,4.03
2019-02-15T15:41:04.377Z,5.40
2019-02-15T15:43:36.692Z,4.97
2019-02-15T15:46:09.998Z,4.80
2019-02-15T15:48:59.221Z,4.23
2019-02-15T15:51:35.249Z,4.53
2019-02-15T15:54:05.383Z,3.53
2019-02-15T15:56:37.146Z,5.40
2019-02-15T15:59:09.519Z,5.20
2019-02-15T16:01:37.841Z,5.30
2019-02-15T16:04:06.998Z,5.97
2019-02-15T16:06:37.467Z,4.83
2019-02-15T16:09:06.887Z,4.70
2019-02-15T16:11:41.849Z,4.67
2019-02-15T16:14:15.091Z,4.73
2019-02-15T16:17:06.664Z,5.27
2019-02-15T16:19:48.827Z,4.00
2019-02-15T16:22:12.125Z,5.30
2019-02-15T16:24:40.758Z,5.70
2019-02-15T16:27:17.972Z,9.57
2019-02-15T16:29:44.081Z,6.90
2019-02-15T16:32:13.596Z,5.40
2019-02-15T16:34:49.555Z,4.90
2019-02-15T16:37:21.213Z,5.40
2019-02-15T16:40:05.500Z,5.17
2019-02-15T16:42:59.071Z,5.60
2019-02-15T16:45:35.182Z,6.13
2019-02-15T16:48:03.714Z,7.83
2019-02-15T16:50:57.652Z,7.53
2019-02-15T16:53:48.232Z,8.20
2019-02-15T16:56:43.960Z,7.77
2019-02-15T16:59:14.064Z,7.57
2019-02-15T17:02:23.087Z,6.20
2019-02-15T17:04:51.540Z,6.60
2019-02-15T17:07:30.124Z,6.70
2019-02-15T17:09:58.629Z,6.70
2019-02-15T17:12:26.913Z,6.00
2019-02-15T17:14:56.913Z,6.55
2019-02-15T17:17:27.259Z,5.70
2019-02-15T17:19:58.874Z,5.97
2019-02-15T17:22:46.538Z,6.70
2019-02-15T17:25:18.793Z,6.37
2019-02-15T17:27:47.386Z,8.33
2019-02-15T17:30:18.585Z,7.33
2019-02-15T17:32:48.836Z,5.97
2019-02-15T17:35:19.771Z,6.87
2019-02-15T17:37:48.667Z,6.67
2019-02-15T17:40:36.794Z,7.50
2019-02-15T17:46:24.144Z,5.77
2019-02-15T17:49:30.715Z,6.20
2019-02-15T17:52:06.978Z,6.23
2019-02-15T17:54:44.753Z,8.30
2019-02-15T17:57:27.630Z,6.53
2019-02-15T17:59:58.858Z,6.97
2019-02-15T18:06:08.832Z,10.32
2019-02-15T18:08:48.056Z,8.67
2019-02-15T18:11:25.814Z,9.50
2019-02-15T18:14:29.388Z,8.90
2019-02-15T18:20:36.744Z,9.17
2019-02-15T18:23:09.196Z,8.97
2019-02-15T18:28:49.127Z,8.80
2019-02-15T18:31:26.017Z,8.87
2019-02-15T18:33:54.722Z,9.00
2019-02-15T18:36:30.262Z,9.73
2019-02-15T18:39:23.770Z,9.67
2019-02-15T18:41:52.556Z,8.27
2019-02-15T18:44:24.362Z,12.30
2019-02-15T18:46:56.477Z,8.40
2019-02-15T18:50:06.641Z,10.10
2019-02-15T18:52:35.722Z,10.23
2019-02-15T18:57:56.375Z,10.03
2019-02-15T19:03:15.060Z,10.50
2019-02-15T19:06:06.997Z,11.77
2019-02-15T19:08:45.100Z,9.87
2019-02-15T19:11:16.925Z,11.37
2019-02-15T19:13:49.389Z,10.60
2019-02-15T19:16:22.537Z,11.40
2019-02-15T19:18:53.062Z,12.23
2019-02-15T19:21:22.984Z,14.10
2019-02-15T19:23:56.236Z,13.37
2019-02-15T19:26:53.522Z,11.93
2019-02-15T19:29:23.745Z,14.20
2019-02-15T19:34:43.856Z,12.77
2019-02-15T19:37:12.844Z,12.33
2019-02-15T19:39:48.240Z,10.33
2019-02-15T19:42:36.395Z,10.20
2019-02-15T19:45:22.143Z,10.63
2019-02-15T19:47:54.492Z,12.60
2019-02-15T19:50:29.377Z,13.30
2019-02-15T19:53:04.454Z,12.90
2019-02-15T19:55:41.389Z,12.18
2019-02-15T19:58:12.679Z,11.70
2019-02-15T20:04:28.655Z,13.00
2019-02-15T20:07:09.978Z,12.60
2019-02-15T20:10:05.915Z,13.67
2019-02-15T20:12:35.510Z,16.20
2019-02-15T20:15:47.619Z,15.83
2019-02-15T20:18:41.344Z,13.33
2019-02-15T20:21:17.467Z,13.10
2019-02-15T20:23:51.252Z,14.80
2019-02-15T20:26:24.310Z,13.33
2019-02-15T20:29:36.332Z,13.87
2019-02-15T20:32:08.900Z,13.00
2019-02-15T20:35:07.921Z,13.73
2019-02-15T20:37:48.175Z,15.60
2019-02-15T20:40:47.552Z,13.33
2019-02-15T20:43:33.863Z,14.80
2019-02-15T20:52:00.487Z,15.50
2019-02-15T20:54:53.397Z,22.97
2019-02-15T20:57:32.651Z,15.00
2019-02-15T21:00:23.728Z,22.65
2019-02-15T21:02:58.797Z,16.83
2019-02-15T21:08:54.314Z,15.60
2019-02-15T21:12:04.801Z,19.40
2019-02-15T21:14:47.002Z,14.13
2019-02-15T21:17:21.496Z,15.70
2019-02-15T21:19:54.635Z,16.83
2019-02-15T21:25:48.103Z,19.77
2019-02-15T21:28:36.759Z,17.23
2019-02-15T21:31:44.896Z,17.83
2019-02-15T21:34:41.134Z,15.47
2019-02-15T21:37:28.207Z,13.50
2019-02-15T21:40:18.876Z,12.97
2019-02-15T21:42:56.081Z,13.20
2019-02-15T21:45:30.613Z,13.47
2019-02-15T21:48:08.945Z,11.27
2019-02-15T21:50:59.618Z,12.43
2019-02-15T21:53:30.200Z,11.63
2019-02-15T21:55:58.838Z,10.50
2019-02-15T21:58:30.307Z,13.03
2019-02-15T22:01:09.314Z,12.63
2019-02-15T22:04:03.405Z,10.97
2019-02-15T22:06:51.140Z,12.10
2019-02-15T22:09:42.503Z,11.40
2019-02-15T22:15:04.810Z,11.30
2019-02-15T22:17:37.906Z,10.95
2019-02-15T22:20:26.393Z,12.40
2019-02-15T22:22:59.516Z,10.40
2019-02-15T22:25:34.625Z,13.17
2019-02-15T22:28:25.792Z,10.87
2019-02-15T22:31:01.386Z,9.77
2019-02-15T22:33:57.184Z,10.27
2019-02-15T22:36:25.898Z,11.40
2019-02-15T22:38:54.219Z,10.33
2019-02-15T22:41:28.056Z,10.03
2019-02-15T22:44:00.455Z,10.77
2019-02-15T22:46:31.429Z,9.30
2019-02-15T22:49:02.992Z,10.87
2019-02-15T22:51:41.180Z,11.07
2019-02-15T22:54:41.083Z,9.90
2019-02-15T22:57:19.437Z,10.60
2019-02-15T23:00:15.549Z,10.10
2019-02-15T23:02:53.755Z,9.70
2019-02-15T23:05:27.457Z,9.53
2019-02-15T23:08:00.734Z,10.80
2019-02-15T23:10:38.282Z,9.87
2019-02-15T23:13:27.839Z,10.47
2019-02-15T23:16:18.801Z,10.47
2019-02-15T23:21:37.407Z,10.60
2019-02-15T23:24:14.322Z,9.17
2019-02-15T23:27:07.035Z,9.03
2019-02-15T23:29:35.327Z,10.30
2019-02-15T23:32:07.761Z,10.03
2019-02-15T23:34:39.622Z,14.77
2019-02-15T23:37:10.358Z,10.07
2019-02-15T23:39:39.057Z,8.60
2019-02-15T23:42:10.311Z,9.90
2019-02-15T23:44:41.648Z,8.33
2019-02-15T23:47:14.369Z,10.10
2019-02-15T23:49:43.723Z,10.40
2019-02-15T23:52:17.811Z,10.10
2019-02-15T23:55:05.786Z,10.20
2019-02-15T23:57:40.912Z,12.13
